Time;durP1;ratioP1;P1;durP2;ratioP2;P2;SDS_P1;SDS_P2;PMS_P1;PMS_P2;Temp;Humidity;BMP_temperature;BMP_pressure;BME280_temperature;BME280_humidity;BME280_pressure;Samples;Min_cycle;Max_cycle;Signal;HPM_P1;HPM_P2
2021/03/04 00:02:14;;;;;;;;;;;;;;;;;;5039486;28;20533;-79
2021/03/04 00:04:40;;;;;;;24.05;10.98;;;;;;;;;;5058724;28;20015;-79
2021/03/04 00:07:06;;;;;;;23.13;11.15;;;;;;;;;;5030540;28;20056;-79
2021/03/04 00:09:32;;;;;;;31.45;13.80;;;;;;;;;;5025469;28;20057;-78
2021/03/04 00:11:58;;;;;;;25.23;11.95;;;;;;;;;;5023058;28;20053;-79
2021/03/04 00:14:24;;;;;;;27.42;12.32;;;;;;;;;;5025742;28;20040;-79
2021/03/04 00:16:50;;;;;;;;;;;;;;;;;;5018741;28;20554;-79
2021/03/04 00:19:17;;;;;;;28.83;12.73;;;;;;;;;;5022332;28;19917;-77
2021/03/04 00:21:43;;;;;;;26.20;10.90;;;;;;;;;;5018460;28;20035;-78
2021/03/04 00:24:09;;;;;;;26.42;11.00;;;;;;;;;;5019271;28;20025;-81
2021/03/04 00:26:35;;;;;;;;;;;;;;;;;;5023081;28;20043;-79
2021/03/04 00:29:02;;;;;;;28.95;10.77;;;;;;;;;;5008015;28;19921;-79
2021/03/04 00:31:28;;;;;;;22.42;10.70;;;;;;;;;;4999822;28;20167;-79
2021/03/04 00:33:54;;;;;;;24.63;10.65;;;;;;;;;;5011091;28;20124;-79
2021/03/04 00:36:20;;;;;;;;;;;;;;;;;;5004801;28;20509;-79
2021/03/04 00:38:46;;;;;;;26.90;10.98;;;;;;;;;;5017437;28;19916;-78
2021/03/04 00:41:12;;;;;;;;;;;;;;;;;;4993939;28;20038;-79
2021/03/04 00:43:39;;;;;;;29.50;11.25;;;;;;;;;;4993801;28;19917;-79
2021/03/04 00:46:05;;;;;;;21.85;10.30;;;;;;;;;;4988408;28;20030;-78
2021/03/04 00:48:31;;;;;;;21.52;9.98;;;;;;;;;;5020444;28;20032;-78
2021/03/04 00:50:57;;;;;;;;;;;;;;;;;;5014095;28;20191;-79
2021/03/04 00:53:23;;;;;;;24.48;9.93;;;;;;;;;;5018092;28;19917;-79
2021/03/04 00:55:52;;;;;;;23.10;10.32;;;;;;;;;;5003525;28;20025;-78
2021/03/04 00:58:18;;;;;;;27.48;11.98;;;;;;;;;;5015009;28;20043;-79
2021/03/04 01:00:45;;;;;;;25.42;12.13;;;;;;;;;;5004264;28;20033;-79
2021/03/04 01:03:11;;;;;;;;;;;;;;;;;;5001634;28;20033;-78
2021/03/04 01:05:37;;;;;;;22.85;10.40;;;;;;;;;;5009538;28;19963;-77
2021/03/04 01:08:03;;;;;;;;;;;;;;;;;;5016178;28;20159;-79
2021/03/04 01:10:33;;;;;;;26.52;11.38;;;;;;;;;;5022020;28;19927;-78
2021/03/04 01:12:59;;;;;;;27.02;12.20;;;;;;;;;;5013323;28;20096;-78
2021/03/04 01:15:26;;;;;;;25.85;10.43;;;;;;;;;;5009871;28;20099;-79
2021/03/04 01:17:52;;;;;;;26.17;10.98;;;;;;;;;;5020099;28;20028;-79
2021/03/04 01:20:18;;;;;;;;;;;;;;;;;;5022749;28;20037;-78
2021/03/04 01:22:44;;;;;;;30.80;11.30;;;;;;;;;;5005411;28;19954;-79
2021/03/04 01:25:11;;;;;;;23.17;11.07;;;;;;;;;;4996829;28;21474;-78
2021/03/04 01:27:37;;;;;;;23.30;10.60;;;;;;;;;;5016435;28;20091;-79
2021/03/04 01:30:08;;;;;;;20.75;10.32;;;;;;;;;;5042761;28;20052;-78
2021/03/04 01:32:34;;;;;;;20.23;9.95;;;;;;;;;;5040905;28;20500;-79
2021/03/04 01:35:00;;;;;;;;;;;;;;;;;;5020062;28;20037;-79
2021/03/04 01:37:27;;;;;;;25.40;10.73;;;;;;;;;;5022287;28;20427;-79
2021/03/04 01:39:53;;;;;;;23.05;10.13;;;;;;;;;;5020810;28;20044;-79
2021/03/04 01:42:19;;;;;;;28.05;10.82;;;;;;;;;;5021308;28;20025;-79
2021/03/04 01:44:47;;;;;;;27.67;11.07;;;;;;;;;;5022536;28;20040;-80
2021/03/04 01:47:13;;;;;;;26.13;10.98;;;;;;;;;;5011473;28;20140;-78
2021/03/04 01:49:40;;;;;;;22.77;10.73;;;;;;;;;;5018145;28;20045;-79
2021/03/04 01:52:07;;;;;;;29.90;11.80;;;;;;;;;;5009709;28;20694;-78
2021/03/04 01:54:33;;;;;;;23.80;11.05;;;;;;;;;;5020783;28;20029;-79
2021/03/04 01:56:59;;;;;;;;;;;;;;;;;;5024485;28;20029;-78
2021/03/04 01:59:26;;;;;;;24.90;10.70;;;;;;;;;;5018359;28;19928;-77
2021/03/04 02:01:52;;;;;;;26.75;10.68;;;;;;;;;;5020467;28;20033;-78
2021/03/04 02:04:18;;;;;;;;;;;;;;;;;;5019629;28;20077;-78
2021/03/04 02:06:50;;;;;;;24.77;10.40;;;;;;;;;;5055270;28;19942;-78
2021/03/04 02:09:18;;;;;;;21.33;10.07;;;;;;;;;;5045712;28;20025;-78
2021/03/04 02:11:49;;;;;;;23.38;10.48;;;;;;;;;;5031233;28;20037;-78
2021/03/04 02:14:17;;;;;;;25.40;10.98;;;;;;;;;;5044995;28;20055;-78
2021/03/04 02:16:52;;;;;;;28.13;10.85;;;;;;;;;;5025135;28;20029;-77
2021/03/04 02:19:37;;;;;;;30.50;11.07;;;;;;;;;;5022428;28;20087;-78
2021/03/04 02:22:13;;;;;;;22.83;10.88;;;;;;;;;;5016509;28;20099;-77
2021/03/04 02:24:39;;;;;;;23.30;10.40;;;;;;;;;;5020631;28;20048;-77
2021/03/04 02:27:29;;;;;;;21.73;10.45;;;;;;;;;;5020743;28;20037;-78
2021/03/04 02:30:04;;;;;;;26.45;10.88;;;;;;;;;;5010057;28;20037;-79
2021/03/04 02:32:31;;;;;;;25.98;11.38;;;;;;;;;;5036980;28;20044;-78
2021/03/04 02:35:00;;;;;;;21.33;10.45;;;;;;;;;;5051421;28;20025;-78
2021/03/04 02:37:29;;;;;;;22.77;10.95;;;;;;;;;;5035118;28;20694;-79
2021/03/04 02:39:56;;;;;;;22.15;10.98;;;;;;;;;;5038563;28;20040;-78
2021/03/04 02:42:23;;;;;;;23.55;10.50;;;;;;;;;;5044695;28;20074;-77
2021/03/04 02:44:52;;;;;;;25.73;11.02;;;;;;;;;;5043081;28;20023;-79
2021/03/04 02:47:18;;;;;;;28.08;10.98;;;;;;;;;;5038414;28;20063;-78
2021/03/04 02:49:44;;;;;;;;;;;;;;;;;;5031560;28;20053;-78
2021/03/04 02:52:11;;;;;;;25.48;10.85;;;;;;;;;;5016150;28;20746;-78
2021/03/04 02:54:38;;;;;;;31.67;11.52;;;;;;;;;;5022549;28;20199;-77
2021/03/04 02:57:05;;;;;;;30.88;12.07;;;;;;;;;;5013991;28;20044;-77
2021/03/04 02:59:32;;;;;;;21.90;9.93;;;;;;;;;;5023258;28;20513;-77
2021/03/04 03:01:59;;;;;;;27.63;11.90;;;;;;;;;;5019003;28;20037;-78
2021/03/04 03:04:25;;;;;;;21.02;9.93;;;;;;;;;;5037100;28;20036;-78
2021/03/04 03:06:53;;;;;;;25.90;11.10;;;;;;;;;;5022984;28;20068;-78
2021/03/04 03:09:19;;;;;;;29.65;12.38;;;;;;;;;;5025942;28;20116;-79
2021/03/04 03:11:45;;;;;;;24.08;11.10;;;;;;;;;;5022471;28;20090;-78
2021/03/04 03:14:12;;;;;;;24.42;11.68;;;;;;;;;;5017980;28;20271;-76
2021/03/04 03:16:38;;;;;;;28.45;11.75;;;;;;;;;;5031752;28;20041;-79
2021/03/04 03:19:04;;;;;;;25.80;11.57;;;;;;;;;;5031756;28;20041;-80
2021/03/04 03:21:30;;;;;;;23.20;10.43;;;;;;;;;;5035108;28;20092;-80
2021/03/04 03:23:56;;;;;;;28.58;11.70;;;;;;;;;;5016955;28;20049;-79
2021/03/04 03:26:22;;;;;;;24.73;11.20;;;;;;;;;;5037711;28;20052;-79
2021/03/04 03:28:51;;;;;;;23.58;11.07;;;;;;;;;;5037089;28;20041;-79
2021/03/04 03:31:21;;;;;;;27.15;11.50;;;;;;;;;;5036843;28;20403;-80
2021/03/04 03:33:47;;;;;;;24.23;11.15;;;;;;;;;;5019663;28;20037;-78
2021/03/04 03:36:13;;;;;;;;;;;;;;;;;;5014283;28;20545;-78
2021/03/04 03:38:40;;;;;;;22.73;10.85;;;;;;;;;;5019894;28;19917;-78
2021/03/04 03:41:07;;;;;;;31.00;11.00;;;;;;;;;;5036160;28;20540;-78
2021/03/04 03:43:33;;;;;;;28.60;12.40;;;;;;;;;;5041442;28;20075;-77
2021/03/04 03:46:01;;;;;;;26.95;12.07;;;;;;;;;;5030366;28;20033;-78
2021/03/04 03:48:28;;;;;;;23.95;11.90;;;;;;;;;;5024129;28;20108;-79
2021/03/04 03:50:55;;;;;;;27.02;11.60;;;;;;;;;;5015680;28;20017;-80
2021/03/04 03:53:22;;;;;;;25.45;11.50;;;;;;;;;;5034435;28;20055;-80
2021/03/04 03:55:49;;;;;;;;;;;;;;;;;;5019839;28;20112;-79
2021/03/04 03:58:19;;;;;;;25.13;12.13;;;;;;;;;;5017725;28;20359;-76
2021/03/04 04:00:46;;;;;;;25.80;11.52;;;;;;;;;;5023102;28;20044;-79
2021/03/04 04:03:12;;;;;;;27.27;11.57;;;;;;;;;;5037872;28;20012;-80
2021/03/04 04:05:38;;;;;;;;;;;;;;;;;;5045709;28;20027;-79
2021/03/04 04:08:04;;;;;;;24.70;11.18;;;;;;;;;;5053072;28;19920;-79
2021/03/04 04:10:31;;;;;;;30.17;11.50;;;;;;;;;;5034678;28;20045;-78
2021/03/04 04:12:58;;;;;;;23.90;10.93;;;;;;;;;;5034404;28;20834;-78
2021/03/04 04:15:25;;;;;;;21.00;10.48;;;;;;;;;;5024985;28;20041;-79
2021/03/04 04:17:51;;;;;;;20.60;10.05;;;;;;;;;;5019663;28;20020;-78
2021/03/04 04:20:17;;;;;;;;;;;;;;;;;;5043896;28;20033;-78
2021/03/04 04:22:43;;;;;;;31.80;10.73;;;;;;;;;;5041780;28;19982;-79
2021/03/04 04:25:10;;;;;;;22.35;10.63;;;;;;;;;;5013527;28;20040;-78
2021/03/04 04:27:36;;;;;;;22.85;10.63;;;;;;;;;;5026994;28;20037;-78
2021/03/04 04:30:03;;;;;;;22.52;10.80;;;;;;;;;;5021992;28;20051;-78
2021/03/04 04:32:29;;;;;;;24.35;11.02;;;;;;;;;;5020837;28;20036;-78
2021/03/04 04:34:55;;;;;;;26.15;10.68;;;;;;;;;;5017815;28;20032;-78
2021/03/04 04:37:21;;;;;;;26.40;11.63;;;;;;;;;;5031654;28;20033;-78
2021/03/04 04:39:50;;;;;;;23.85;11.43;;;;;;;;;;5042168;28;20028;-78
2021/03/04 04:42:16;;;;;;;26.42;11.38;;;;;;;;;;5043002;28;20036;-78
2021/03/04 04:44:42;;;;;;;27.38;11.65;;;;;;;;;;5045942;28;20382;-79
2021/03/04 04:47:08;;;;;;;23.60;11.02;;;;;;;;;;5033696;28;22508;-78
2021/03/04 04:49:34;;;;;;;22.85;11.07;;;;;;;;;;5033318;28;20059;-77
2021/03/04 04:52:01;;;;;;;22.30;10.82;;;;;;;;;;5028699;28;20035;-78
2021/03/04 04:54:27;;;;;;;22.13;10.48;;;;;;;;;;5041504;28;20060;-78
2021/03/04 04:56:55;;;;;;;25.30;11.07;;;;;;;;;;5021826;28;20048;-78
2021/03/04 04:59:21;;;;;;;24.83;10.85;;;;;;;;;;5041772;28;20033;-78
2021/03/04 05:01:49;;;;;;;27.13;10.82;;;;;;;;;;5034246;28;20114;-78
2021/03/04 05:04:15;;;;;;;24.52;9.93;;;;;;;;;;5033724;28;20043;-78
2021/03/04 05:06:41;;;;;;;22.23;10.40;;;;;;;;;;5037314;28;20067;-78
2021/03/04 05:09:07;;;;;;;21.77;10.95;;;;;;;;;;5040022;28;20048;-78
2021/03/04 05:11:34;;;;;;;27.23;11.30;;;;;;;;;;5039556;28;20037;-77
2021/03/04 05:14:00;;;;;;;25.38;10.77;;;;;;;;;;5040936;28;20028;-78
2021/03/04 05:16:26;;;;;;;26.17;9.55;;;;;;;;;;5044296;28;20541;-78
2021/03/04 05:18:52;;;;;;;22.85;10.55;;;;;;;;;;5036517;28;20024;-78
2021/03/04 05:21:18;;;;;;;23.35;10.73;;;;;;;;;;5044601;28;20081;-78
2021/03/04 05:23:44;;;;;;;25.70;10.75;;;;;;;;;;5051015;28;20016;-78
2021/03/04 05:26:10;;;;;;;29.38;11.13;;;;;;;;;;5023747;28;21304;-78
2021/03/04 05:28:36;;;;;;;32.83;11.55;;;;;;;;;;5020832;28;20294;-79
2021/03/04 05:31:02;;;;;;;28.55;11.57;;;;;;;;;;4984353;28;20521;-78
2021/03/04 05:33:29;;;;;;;28.73;11.43;;;;;;;;;;4990041;28;20030;-77
2021/03/04 05:35:55;;;;;;;25.17;11.45;;;;;;;;;;5019473;28;20036;-78
2021/03/04 05:38:21;;;;;;;28.98;11.65;;;;;;;;;;5018982;28;20030;-80
2021/03/04 05:40:47;;;;;;;27.23;11.45;;;;;;;;;;5024570;28;20132;-77
2021/03/04 05:43:13;;;;;;;21.55;10.95;;;;;;;;;;5022282;28;20037;-80
2021/03/04 05:45:41;;;;;;;22.65;12.02;;;;;;;;;;5030100;28;20308;-77
2021/03/04 05:48:09;;;;;;;27.90;11.80;;;;;;;;;;5031610;28;20095;-79
2021/03/04 05:50:37;;;;;;;26.58;11.43;;;;;;;;;;5030281;28;20033;-79
2021/03/04 05:53:05;;;;;;;22.17;10.20;;;;;;;;;;5019329;28;20029;-79
2021/03/04 05:55:33;;;;;;;26.65;11.35;;;;;;;;;;5022850;28;20037;-78
2021/03/04 05:57:59;;;;;;;28.55;10.95;;;;;;;;;;5021544;28;20543;-79
2021/03/04 06:00:26;;;;;;;25.20;11.25;;;;;;;;;;5016451;28;20025;-79
2021/03/04 06:02:52;;;;;;;26.27;11.15;;;;;;;;;;5015431;28;20112;-79
2021/03/04 06:05:18;;;;;;;;;;;;;;;;;;5023724;28;20037;-79
2021/03/04 06:07:45;;;;;;;25.00;11.05;;;;;;;;;;5024413;28;19951;-79
2021/03/04 06:10:12;;;;;;;49.95;14.70;;;;;;;;;;5018051;28;21532;-79
2021/03/04 06:12:38;;;;;;;32.03;11.45;;;;;;;;;;5020758;28;20037;-81
2021/03/04 06:15:06;;;;;;;27.95;11.75;;;;;;;;;;5015753;28;20053;-79
2021/03/04 06:17:33;;;;;;;27.95;11.25;;;;;;;;;;5017415;28;20029;-79
2021/03/04 06:20:00;;;;;;;24.58;11.90;;;;;;;;;;5010967;28;20040;-79
2021/03/04 06:22:32;;;;;;;26.05;11.50;;;;;;;;;;5023726;28;20372;-79
2021/03/04 06:24:59;;;;;;;27.30;12.30;;;;;;;;;;5019312;28;20040;-79
2021/03/04 06:27:29;;;;;;;23.75;11.43;;;;;;;;;;5032681;28;20049;-79
2021/03/04 06:29:56;;;;;;;27.45;12.23;;;;;;;;;;5034625;28;20032;-79
2021/03/04 06:32:23;;;;;;;27.17;12.30;;;;;;;;;;5040955;28;20037;-79
2021/03/04 06:35:01;;;;;;;27.25;12.27;;;;;;;;;;5027622;28;20052;-78
2021/03/04 06:37:29;;;;;;;27.70;12.23;;;;;;;;;;5026400;28;20094;-78
2021/03/04 06:39:55;;;;;;;25.95;11.65;;;;;;;;;;5041290;28;20395;-79
2021/03/04 06:42:23;;;;;;;26.23;11.68;;;;;;;;;;5025224;28;20025;-79
2021/03/04 06:44:55;;;;;;;27.77;12.63;;;;;;;;;;5025420;28;20531;-80
2021/03/04 06:47:22;;;;;;;28.63;12.40;;;;;;;;;;5025168;28;20047;-79
2021/03/04 06:49:51;;;;;;;28.63;13.10;;;;;;;;;;5036262;28;20029;-79
2021/03/04 06:52:25;;;;;;;23.92;12.15;;;;;;;;;;5030794;28;20033;-79
2021/03/04 06:54:53;;;;;;;29.05;12.70;;;;;;;;;;5014272;28;20598;-80
2021/03/04 06:57:19;;;;;;;24.73;12.27;;;;;;;;;;5024421;28;20079;-79
2021/03/04 06:59:46;;;;;;;30.98;13.20;;;;;;;;;;5023195;28;20018;-79
2021/03/04 07:02:24;;;;;;;28.60;13.73;;;;;;;;;;5030244;28;20055;-81
2021/03/04 07:04:57;;;;;;;33.80;13.45;;;;;;;;;;5039108;28;20070;-79
2021/03/04 07:07:25;;;;;;;35.00;13.90;;;;;;;;;;5027091;28;20037;-78
2021/03/04 07:09:58;;;;;;;35.05;13.20;;;;;;;;;;5027342;28;20029;-79
2021/03/04 07:12:25;;;;;;;33.28;12.85;;;;;;;;;;5022400;28;20088;-78
2021/03/04 07:14:51;;;;;;;27.08;13.18;;;;;;;;;;5035101;28;20107;-78
2021/03/04 07:17:18;;;;;;;27.20;12.38;;;;;;;;;;5024072;28;20152;-77
2021/03/04 07:19:47;;;;;;;24.98;12.88;;;;;;;;;;5020533;28;20062;-77
2021/03/04 07:22:13;;;;;;;27.48;12.55;;;;;;;;;;5030337;28;20060;-77
2021/03/04 07:24:39;;;;;;;;;;;;;;;;;;5017452;28;20034;-78
2021/03/04 07:27:06;;;;;;;24.15;12.10;;;;;;;;;;5019152;28;19920;-78
2021/03/04 07:29:32;;;;;;;25.30;12.38;;;;;;;;;;5026218;28;20076;-78
2021/03/04 07:31:58;;;;;;;;;;;;;;;;;;5003829;28;20049;-77
2021/03/04 07:34:25;;;;;;;30.63;13.23;;;;;;;;;;5020910;28;19924;-78
2021/03/04 07:36:52;;;;;;;28.88;13.77;;;;;;;;;;5001327;28;20067;-78
2021/03/04 07:39:27;;;;;;;27.10;13.50;;;;;;;;;;5019512;28;20099;-78
2021/03/04 07:41:56;;;;;;;29.50;12.80;;;;;;;;;;5017228;28;20135;-77
2021/03/04 07:44:24;;;;;;;29.35;12.85;;;;;;;;;;5038651;28;20365;-78
2021/03/04 07:46:51;;;;;;;30.85;13.20;;;;;;;;;;5022460;28;20040;-79
2021/03/04 07:49:28;;;;;;;28.17;13.60;;;;;;;;;;5031255;28;20040;-77
2021/03/04 07:51:54;;;;;;;;;;;;;;;;;;5032201;28;20041;-78
2021/03/04 07:54:27;;;;;;;27.05;12.90;;;;;;;;;;5019963;28;19942;-78
2021/03/04 07:57:07;;;;;;;30.08;13.02;;;;;;;;;;5038646;28;20031;-78
2021/03/04 07:59:33;;;;;;;31.50;13.27;;;;;;;;;;5036695;28;20044;-78
2021/03/04 08:02:00;;;;;;;28.15;12.75;;;;;;;;;;5034992;28;20029;-79
2021/03/04 08:04:28;;;;;;;27.90;12.50;;;;;;;;;;5038214;28;20059;-79
2021/03/04 08:06:54;;;;;;;31.10;12.65;;;;;;;;;;5031117;28;20040;-79
2021/03/04 08:09:39;;;;;;;27.58;13.05;;;;;;;;;;5026943;28;20025;-78
2021/03/04 08:12:06;;;;;;;30.92;12.48;;;;;;;;;;5037043;28;20024;-78
2021/03/04 08:14:32;;;;;;;26.67;11.82;;;;;;;;;;5039934;28;20036;-79
2021/03/04 08:16:58;;;;;;;;;;;;;;;;;;5036507;28;20029;-79
2021/03/04 08:19:28;;;;;;;32.92;13.27;;;;;;;;;;5030165;28;19920;-78
2021/03/04 08:21:57;;;;;;;29.85;12.70;;;;;;;;;;5007613;28;20143;-79
2021/03/04 08:24:24;;;;;;;28.48;12.30;;;;;;;;;;5039462;28;20025;-78
2021/03/04 08:26:56;;;;;;;23.08;11.23;;;;;;;;;;5022804;28;20017;-78
2021/03/04 08:29:22;;;;;;;24.92;12.18;;;;;;;;;;5038355;28;20040;-79
2021/03/04 08:31:52;;;;;;;;;;;;;;;;;;5038260;28;20048;-78
2021/03/04 08:34:18;;;;;;;27.75;11.93;;;;;;;;;;5037384;28;19916;-78
2021/03/04 08:36:44;;;;;;;;;;;;;;;;;;5040456;28;20052;-79
2021/03/04 08:39:10;;;;;;;26.45;10.82;;;;;;;;;;5037148;28;19916;-79
2021/03/04 08:41:40;;;;;;;21.60;10.05;;;;;;;;;;5024076;28;20025;-80
2021/03/04 08:44:11;;;;;;;31.83;10.60;;;;;;;;;;5012395;28;20033;-79
2021/03/04 08:46:38;;;;;;;23.92;9.68;;;;;;;;;;5032388;28;20248;-78
2021/03/04 08:49:04;;;;;;;22.20;10.10;;;;;;;;;;5029913;28;20698;-79
2021/03/04 08:51:30;;;;;;;;;;;;;;;;;;5025256;28;20049;-79
2021/03/04 08:53:56;;;;;;;25.23;9.77;;;;;;;;;;5037308;28;19998;-79
2021/03/04 08:56:22;;;;;;;22.75;9.98;;;;;;;;;;5045473;28;20523;-79
2021/03/04 08:58:49;;;;;;;;;;;;;;;;;;5042454;28;20052;-79
2021/03/04 09:01:15;;;;;;;26.08;10.07;;;;;;;;;;5036865;28;20011;-80
2021/03/04 09:03:41;;;;;;;;;;;;;;;;;;5024864;28;20048;-76
2021/03/04 09:06:11;;;;;;;22.70;9.80;;;;;;;;;;5021436;28;20046;-79
2021/03/04 09:08:38;;;;;;;21.75;9.98;;;;;;;;;;5007079;28;20033;-79
2021/03/04 09:11:06;;;;;;;22.75;9.80;;;;;;;;;;5022288;28;20124;-80
2021/03/04 09:13:32;;;;;;;25.73;8.95;;;;;;;;;;5040341;28;20036;-79
2021/03/04 09:16:05;;;;;;;21.08;9.05;;;;;;;;;;5026061;28;20039;-80
2021/03/04 09:18:31;;;;;;;19.40;8.18;;;;;;;;;;5025862;28;21682;-79
2021/03/04 09:20:58;;;;;;;23.95;8.93;;;;;;;;;;5030448;28;20032;-79
2021/03/04 09:23:25;;;;;;;24.33;9.43;;;;;;;;;;5064210;28;20037;-80
2021/03/04 09:25:56;;;;;;;22.05;8.65;;;;;;;;;;5040291;28;20048;-80
2021/03/04 09:28:23;;;;;;;23.02;8.30;;;;;;;;;;5041252;28;20137;-79
2021/03/04 09:30:50;;;;;;;19.13;8.85;;;;;;;;;;5045482;28;20048;-79
2021/03/04 09:33:35;;;;;;;22.60;9.45;;;;;;;;;;5028731;28;20060;-79
2021/03/04 09:36:02;;;;;;;24.33;10.02;;;;;;;;;;5040067;28;20115;-79
2021/03/04 09:38:29;;;;;;;24.35;9.90;;;;;;;;;;5040491;28;20033;-79
2021/03/04 09:40:55;;;;;;;25.40;10.02;;;;;;;;;;5019008;28;20037;-78
2021/03/04 09:43:25;;;;;;;23.48;8.77;;;;;;;;;;5024676;28;20071;-78
2021/03/04 09:45:51;;;;;;;28.05;9.88;;;;;;;;;;5020664;28;20033;-79
2021/03/04 09:48:29;;;;;;;24.58;8.88;;;;;;;;;;5040328;28;20048;-79
2021/03/04 09:50:55;;;;;;;24.13;8.95;;;;;;;;;;5019213;28;20021;-78
2021/03/04 09:53:22;;;;;;;19.65;7.68;;;;;;;;;;5037420;28;20060;-79
2021/03/04 09:55:49;;;;;;;20.27;8.73;;;;;;;;;;5037373;28;20787;-78
2021/03/04 09:58:20;;;;;;;19.13;8.25;;;;;;;;;;5017328;28;20086;-79
2021/03/04 10:00:55;;;;;;;21.08;8.15;;;;;;;;;;5009435;28;20040;-78
2021/03/04 10:03:21;;;;;;;21.02;8.50;;;;;;;;;;5043476;28;20032;-79
2021/03/04 10:05:51;;;;;;;23.23;9.02;;;;;;;;;;5028751;28;20024;-78
2021/03/04 10:08:20;;;;;;;23.08;9.02;;;;;;;;;;5014245;28;20041;-78
2021/03/04 10:10:49;;;;;;;23.13;9.05;;;;;;;;;;5035518;28;21051;-78
2021/03/04 10:13:26;;;;;;;23.27;8.88;;;;;;;;;;5041039;28;20094;-78
2021/03/04 10:15:52;;;;;;;24.55;8.13;;;;;;;;;;5039073;28;20235;-79
2021/03/04 10:18:18;;;;;;;26.15;8.82;;;;;;;;;;5041734;28;20025;-79
2021/03/04 10:20:45;;;;;;;20.45;8.68;;;;;;;;;;5026521;28;20052;-79
2021/03/04 10:23:13;;;;;;;27.77;11.43;;;;;;;;;;5031325;28;20807;-79
2021/03/04 10:25:39;;;;;;;20.65;9.50;;;;;;;;;;5038523;28;20041;-79
2021/03/04 10:28:05;;;;;;;19.75;8.70;;;;;;;;;;5034320;28;20032;-79
2021/03/04 10:30:32;;;;;;;25.42;9.93;;;;;;;;;;5003670;28;20045;-79
2021/03/04 10:33:03;;;;;;;21.60;10.25;;;;;;;;;;4989903;28;20055;-79
2021/03/04 10:35:29;;;;;;;25.27;10.20;;;;;;;;;;5005700;28;20048;-79
2021/03/04 10:37:55;;;;;;;22.65;9.27;;;;;;;;;;5000566;28;20029;-79
2021/03/04 10:40:22;;;;;;;21.48;8.88;;;;;;;;;;5013973;28;20030;-79
2021/03/04 10:42:48;;;;;;;24.83;8.55;;;;;;;;;;4988142;28;20044;-79
2021/03/04 10:45:15;;;;;;;24.65;9.32;;;;;;;;;;5014299;28;21044;-79
2021/03/04 10:47:42;;;;;;;24.42;8.63;;;;;;;;;;5023570;28;20066;-79
2021/03/04 10:50:09;;;;;;;24.85;9.13;;;;;;;;;;4997165;28;20056;-78
2021/03/04 10:52:36;;;;;;;19.50;8.35;;;;;;;;;;5012050;28;20053;-78
2021/03/04 10:55:01;;;;;;;;;;;;;;;;;;5020078;28;20029;-79
2021/03/04 10:57:28;;;;;;;25.60;8.40;;;;;;;;;;5002179;28;20408;-79
2021/03/04 10:59:54;;;;;;;19.73;8.35;;;;;;;;;;5003626;28;20055;-79
2021/03/04 11:02:20;;;;;;;23.55;8.05;;;;;;;;;;5020360;28;20053;-79
2021/03/04 11:04:46;;;;;;;;;;;;;;;;;;5021314;28;20043;-79
2021/03/04 11:07:12;;;;;;;23.42;8.68;;;;;;;;;;5013806;28;19916;-79
2021/03/04 11:09:38;;;;;;;23.23;8.43;;;;;;;;;;5014127;28;20064;-78
2021/03/04 11:12:05;;;;;;;19.45;8.68;;;;;;;;;;5017201;28;20045;-79
2021/03/04 11:14:31;;;;;;;23.00;9.27;;;;;;;;;;5002202;28;20029;-79
2021/03/04 11:16:57;;;;;;;;;;;;;;;;;;5008803;28;20037;-79
2021/03/04 11:19:23;;;;;;;22.75;8.68;;;;;;;;;;5010280;28;20717;-79
2021/03/04 11:21:51;;;;;;;22.48;9.23;;;;;;;;;;5003179;28;20021;-79
2021/03/04 11:24:17;;;;;;;22.02;9.18;;;;;;;;;;5020879;28;20372;-78
2021/03/04 11:26:43;;;;;;;;;;;;;;;;;;5029359;28;20039;-78
2021/03/04 11:29:10;;;;;;;21.88;8.95;;;;;;;;;;5024976;28;20047;-78
2021/03/04 11:31:36;;;;;;;21.63;8.65;;;;;;;;;;5029976;28;20037;-79
2021/03/04 11:34:03;;;;;;;22.33;9.10;;;;;;;;;;5041463;28;20414;-79
2021/03/04 11:36:29;;;;;;;20.60;7.65;;;;;;;;;;5052568;28;21676;-78
2021/03/04 11:38:56;;;;;;;19.08;7.93;;;;;;;;;;5024519;28;20021;-78
2021/03/04 11:41:22;;;;;;;24.02;8.80;;;;;;;;;;5023791;28;20033;-78
2021/03/04 11:43:49;;;;;;;20.92;7.88;;;;;;;;;;5037800;28;20028;-78
2021/03/04 11:46:15;;;;;;;24.00;8.73;;;;;;;;;;5020202;28;20201;-78
2021/03/04 11:48:41;;;;;;;27.35;9.00;;;;;;;;;;5023929;28;20052;-78
2021/03/04 11:51:08;;;;;;;23.70;9.30;;;;;;;;;;5021206;28;20080;-78
2021/03/04 11:53:34;;;;;;;24.70;8.82;;;;;;;;;;5016468;28;20036;-78
2021/03/04 11:56:00;;;;;;;20.73;8.50;;;;;;;;;;5017426;28;20036;-78
2021/03/04 11:58:27;;;;;;;23.75;8.10;;;;;;;;;;5022179;28;20447;-79
2021/03/04 12:00:54;;;;;;;26.77;11.25;;;;;;;;;;5018770;28;20048;-77
2021/03/04 12:03:21;;;;;;;25.70;9.90;;;;;;;;;;5021938;28;20171;-80
2021/03/04 12:05:47;;;;;;;21.88;9.13;;;;;;;;;;5026773;28;20028;-78
2021/03/04 12:08:13;;;;;;;23.10;8.77;;;;;;;;;;5021967;28;20128;-80
2021/03/04 12:10:39;;;;;;;22.17;8.65;;;;;;;;;;5048188;28;20090;-78
2021/03/04 12:13:06;;;;;;;19.02;7.93;;;;;;;;;;5030414;28;20034;-77
2021/03/04 12:15:32;;;;;;;18.70;8.57;;;;;;;;;;5042857;28;20056;-77
2021/03/04 12:17:58;;;;;;;28.90;10.48;;;;;;;;;;5051095;28;20052;-78
2021/03/04 12:20:25;;;;;;;21.05;8.38;;;;;;;;;;5022183;28;20147;-77
2021/03/04 12:22:51;;;;;;;21.98;8.68;;;;;;;;;;5021901;28;20608;-78
2021/03/04 12:25:17;;;;;;;;;;;;;;;;;;5019144;28;20049;-78
2021/03/04 12:27:43;;;;;;;23.13;9.05;;;;;;;;;;5018336;28;19921;-77
2021/03/04 12:30:10;;;;;;;19.33;8.38;;;;;;;;;;5030698;28;21891;-78
2021/03/04 12:32:36;;;;;;;19.33;7.72;;;;;;;;;;5040837;28;20039;-77
2021/03/04 12:35:03;;;;;;;22.83;8.25;;;;;;;;;;5037460;28;20032;-78
2021/03/04 12:37:29;;;;;;;21.33;8.07;;;;;;;;;;5020052;28;20047;-78
2021/03/04 12:39:55;;;;;;;;;;;;;;;;;;5011663;28;20040;-77
2021/03/04 12:42:22;;;;;;;23.35;8.48;;;;;;;;;;5007251;28;19951;-78
2021/03/04 12:44:48;;;;;;;24.42;9.05;;;;;;;;;;5023882;28;20037;-78
2021/03/04 12:47:14;;;;;;;;;;;;;;;;;;5036071;28;20336;-78
2021/03/04 12:49:40;;;;;;;23.08;8.70;;;;;;;;;;5028246;28;20346;-81
2021/03/04 12:52:06;;;;;;;18.27;8.52;;;;;;;;;;5016308;28;20116;-79
2021/03/04 12:54:32;;;;;;;21.60;7.53;;;;;;;;;;5023310;28;20075;-82
2021/03/04 12:56:58;;;;;;;17.08;7.85;;;;;;;;;;5014645;28;20404;-80
2021/03/04 12:59:25;;;;;;;18.20;6.90;;;;;;;;;;5005969;28;20125;-81
2021/03/04 13:01:51;;;;;;;18.13;7.82;;;;;;;;;;5005971;28;20041;-80
2021/03/04 13:04:17;;;;;;;16.20;6.82;;;;;;;;;;5035268;28;20045;-81
2021/03/04 13:06:44;;;;;;;18.45;6.60;;;;;;;;;;5054581;28;20045;-80
2021/03/04 13:09:13;;;;;;;19.27;6.75;;;;;;;;;;5033054;28;20028;-84
2021/03/04 13:11:41;;;;;;;18.02;7.05;;;;;;;;;;5052306;28;20117;-78
2021/03/04 13:14:11;;;;;;;14.38;5.95;;;;;;;;;;5025180;28;20037;-80
2021/03/04 13:16:38;;;;;;;17.52;7.03;;;;;;;;;;5040126;28;20033;-80
2021/03/04 13:19:05;;;;;;;17.45;7.03;;;;;;;;;;5018138;28;20037;-79
2021/03/04 13:21:31;;;;;;;18.48;7.28;;;;;;;;;;5025351;28;20064;-79
2021/03/04 13:24:00;;;;;;;16.42;6.30;;;;;;;;;;5037706;28;20078;-80
2021/03/04 13:26:27;;;;;;;15.38;6.40;;;;;;;;;;5023796;28;20106;-80
2021/03/04 13:28:53;;;;;;;20.55;7.53;;;;;;;;;;5028609;28;20083;-80
2021/03/04 13:31:22;;;;;;;19.85;7.82;;;;;;;;;;5005140;28;20500;-80
2021/03/04 13:33:49;;;;;;;17.88;7.18;;;;;;;;;;5012056;28;20061;-79
2021/03/04 13:36:16;;;;;;;20.75;7.10;;;;;;;;;;5009087;28;20037;-80
2021/03/04 13:38:42;;;;;;;17.90;7.13;;;;;;;;;;5026390;28;20090;-81
2021/03/04 13:41:09;;;;;;;18.80;7.45;;;;;;;;;;5003617;28;20453;-81
2021/03/04 13:43:38;;;;;;;18.80;6.85;;;;;;;;;;4993221;28;20063;-81
2021/03/04 13:46:06;;;;;;;22.17;7.68;;;;;;;;;;4975107;28;20042;-82
2021/03/04 13:48:32;;;;;;;18.17;7.45;;;;;;;;;;5009473;28;20637;-81
2021/03/04 13:50:58;;;;;;;19.25;7.72;;;;;;;;;;5005647;28;20547;-82
2021/03/04 13:53:25;;;;;;;16.77;7.13;;;;;;;;;;5025245;28;20955;-81
2021/03/04 13:55:51;;;;;;;22.25;8.07;;;;;;;;;;5017133;28;20448;-81
2021/03/04 13:58:18;;;;;;;20.85;7.25;;;;;;;;;;5002856;28;20129;-81
2021/03/04 14:00:46;;;;;;;20.65;7.63;;;;;;;;;;4986065;28;20034;-81
2021/03/04 14:03:13;;;;;;;20.08;8.23;;;;;;;;;;4973152;28;20531;-80
2021/03/04 14:05:39;;;;;;;20.65;7.45;;;;;;;;;;5019771;28;20541;-81
2021/03/04 14:08:06;;;;;;;20.75;7.45;;;;;;;;;;5021711;28;20142;-82
2021/03/04 14:10:32;;;;;;;19.00;7.93;;;;;;;;;;5005135;28;20044;-82
2021/03/04 14:12:58;;;;;;;23.58;9.25;;;;;;;;;;5001078;28;20557;-81
2021/03/04 14:15:25;;;;;;;22.90;9.48;;;;;;;;;;4977981;28;20116;-81
2021/03/04 14:17:51;;;;;;;22.17;8.88;;;;;;;;;;5018441;28;20040;-81
2021/03/04 14:20:17;;;;;;;25.73;8.93;;;;;;;;;;5003527;28;20037;-81
2021/03/04 14:22:43;;;;;;;;;;;;;;;;;;4996288;28;20032;-81
2021/03/04 14:25:09;;;;;;;20.27;8.52;;;;;;;;;;4997429;28;20594;-81
2021/03/04 14:27:36;;;;;;;23.77;9.13;;;;;;;;;;5015037;28;20053;-81
2021/03/04 14:30:03;;;;;;;23.42;8.43;;;;;;;;;;5036300;28;20546;-81
2021/03/04 14:32:29;;;;;;;19.27;7.72;;;;;;;;;;5045396;28;20041;-81
2021/03/04 14:34:58;;;;;;;21.27;8.30;;;;;;;;;;5026751;28;20729;-81